Historique des mesures à Cassis (13260), France
Quotidien Résumé Mars 10, 2021 Unités:  US    Métrique   Métrique/US
Quotidien Hebdomadaire Mensuel Annuel
  Maximum: Minimum: Moyenne:
Température: 61.9 °F 50.5 °F 55.9 °F
Point de rosée: 47.5 °F 34.2 °F 41 °F
Humidité: 86% 44% 59%
Vitesse du vent: 8.1mph 0mph 2.5mph
Rafales: 12.6mph - -
Vent- - SSE
Pression: 30.1 in 29.9 in -
Précipitations: 0.47 in    
Historical Graphs
 
 
Mesures pour : Mars 10, 2021
Heure Temperature Point de rosée Pression Vent Vitesse du vent Rafales Humidité Pluie (par heure)
00:11 55.9 °F 39.4 °F 30.1 in East 2.2 mph 6 mph 54% 0 in
01:11 55.9 °F 38.5 °F 30.1 in Calm   3.8 mph 52% 0 in
02:11 55.9 °F 37 °F 30.1 in East 2 mph 3.6 mph 49% 0 in
03:11 55.9 °F 34.2 °F 30 in ESE 2 mph 4.7 mph 44% 0 in
04:11 55.4 °F 36 °F 30 in Calm   1.6 mph 48% 0 in
05:11 55 °F 38.1 °F 30 in Calm   0.9 mph 53% 0 in
06:11 55.2 °F 38.8 °F 30 in ENE 2.2 mph 8.9 mph 54% 0 in
08:11 55.9 °F 38.5 °F 30 in East 3.6 mph 9.6 mph 52% 0 in
09:11 57 °F 38.7 °F 30 in NE 2 mph 7.6 mph 50% 0 in
10:11 58.8 °F 39.7 °F 30 in SE 1.8 mph 3.8 mph 49% 0 in
11:11 61.9 °F 40.8 °F 30 in South 0.9 mph 5.3 mph 46% 0 in
12:11 61.2 °F 40.1 °F 30 in ESE 2 mph 12.6 mph 46% 0 in
13:11 60.6 °F 40.8 °F 30 in SE 3.8 mph 7.1 mph 48% 0 in
14:11 60.1 °F 40.8 °F 30 in ESE 2.2 mph 5.8 mph 49% 0 in
15:11 59.9 °F 39.6 °F 30 in East 7.4 mph 11.9 mph 47% 0 in
17:11 56.5 °F 44.8 °F 30 in Calm   4.9 mph 65% 0.04 in
18:11 53.4 °F 45.3 °F 29.9 in North 2.9 mph 3.6 mph 74% 0.14 in
19:11 52.2 °F 45.5 °F 29.9 in WNW 1.6 mph 5.3 mph 78% 0.08 in
20:11 50.5 °F 45.1 °F 29.9 in WNW 2.5 mph 8.3 mph 82% 0.08 in
21:11 50.5 °F 46.2 °F 29.9 in NW 8.1 mph 12.1 mph 85% 0.12 in
22:11 50.7 °F 46.4 °F 29.9 in NW 7 mph 7.4 mph 85% 0 in
23:11 51.6 °F 47.5 °F 29.9 in NW 1.1 mph 4.2 mph 86% 0 in
Observations météo à CASSIS
WU-History script by Weather Underground - 2 mb